Time,TemperatureF,DewpointF,PressureIn,WindDirection,WindDirectionDegrees,WindSpeedMPH,WindSpeedGustMPH,Humidity,HourlyPrecipIn,Conditions,Clouds,dailyrainin,SoftwareType,DateUTC
2013-08-06 00:00:00,77.1,72.2,29.92,NE,39,0.0,0.0,85,0.00,,SKC,0.00,VWS V13.01,2013-08-06 05:00:00,
2013-08-06 00:05:00,77.1,72.2,29.92,NE,39,0.0,0.0,85,0.00,,SKC,0.00,VWS V13.01,2013-08-06 05:05:00,
2013-08-06 00:10:00,77.0,72.5,29.92,NE,39,0.0,0.0,86,0.00,,SKC,0.00,VWS V13.01,2013-08-06 05:10:00,
2013-08-06 00:15:00,76.9,72.4,29.92,NE,39,0.0,0.0,86,0.00,,SKC,0.00,VWS V13.01,2013-08-06 05:15:00,
2013-08-06 00:20:00,76.7,72.2,29.92,NE,39,0.0,0.0,86,0.00,,SKC,0.00,VWS V13.01,2013-08-06 05:20:00,
2013-08-06 00:25:00,76.6,72.1,29.92,NE,39,0.0,0.0,86,0.00,,SKC,0.00,VWS V13.01,2013-08-06 05:25:00,
2013-08-06 00:30:00,76.5,72.0,29.92,NE,39,0.0,0.0,86,0.00,,SKC,0.00,VWS V13.01,2013-08-06 05:30:00,
2013-08-06 00:35:00,76.4,72.2,29.92,NE,39,0.0,0.0,87,0.00,,SKC,0.00,VWS V13.01,2013-08-06 05:35:00,
2013-08-06 00:40:00,76.2,72.1,29.92,NE,39,0.0,0.0,87,0.00,,SKC,0.00,VWS V13.01,2013-08-06 05:40:00,
2013-08-06 00:45:00,76.0,71.9,29.92,NE,39,0.0,0.0,87,0.00,,SKC,0.00,VWS V13.01,2013-08-06 05:45:00,
2013-08-06 00:50:00,75.9,71.8,29.93,NE,39,0.0,0.0,87,0.00,,SKC,0.00,VWS V13.01,2013-08-06 05:50:00,
2013-08-06 00:55:00,75.7,71.6,29.93,NE,39,0.0,0.0,87,0.00,,SKC,0.00,VWS V13.01,2013-08-06 05:55:00,
2013-08-06 01:00:00,75.6,71.8,29.93,NE,39,0.0,0.0,88,0.00,,SKC,0.00,VWS V13.01,2013-08-06 06:00:00,
2013-08-06 01:05:00,75.4,71.6,29.93,NE,39,0.0,0.0,88,0.00,,SKC,0.00,VWS V13.01,2013-08-06 06:05:00,
2013-08-06 01:10:00,75.2,71.4,29.92,NE,39,0.0,0.0,88,0.00,,SKC,0.00,VWS V13.01,2013-08-06 06:10:00,
2013-08-06 01:15:00,75.1,71.3,29.92,NE,39,0.0,0.0,88,0.00,,SKC,0.00,VWS V13.01,2013-08-06 06:15:00,
2013-08-06 01:20:00,74.9,71.1,29.92,NE,39,0.0,0.0,88,0.00,,SKC,0.00,VWS V13.01,2013-08-06 06:20:00,
2013-08-06 01:25:00,74.7,70.9,29.92,NE,39,0.0,0.0,88,0.00,,SKC,0.00,VWS V13.01,2013-08-06 06:25:00,
2013-08-06 01:30:00,74.6,70.8,29.91,NE,39,0.0,0.0,88,0.00,,SKC,0.00,VWS V13.01,2013-08-06 06:30:00,
2013-08-06 01:35:00,74.5,71.1,29.91,NE,39,0.0,0.0,89,0.00,,SKC,0.00,VWS V13.01,2013-08-06 06:35:00,
2013-08-06 01:40:00,74.4,70.9,29.91,NE,39,0.0,0.0,89,0.00,,SKC,0.00,VWS V13.01,2013-08-06 06:40:00,
2013-08-06 01:45:00,74.3,70.8,29.91,NE,39,0.0,0.0,89,0.00,,SKC,0.00,VWS V13.01,2013-08-06 06:45:00,
2013-08-06 01:50:00,74.1,70.7,29.90,NE,39,0.0,0.0,89,0.00,,SKC,0.00,VWS V13.01,2013-08-06 06:50:00,
2013-08-06 01:55:00,74.0,70.6,29.90,NE,39,0.0,0.0,89,0.00,,SKC,0.00,VWS V13.01,2013-08-06 06:55:00,
2013-08-06 02:00:00,73.9,70.5,29.90,NE,39,0.0,0.0,89,0.00,,SKC,0.00,VWS V13.01,2013-08-06 07:00:00,
2013-08-06 02:05:00,73.7,70.6,29.90,NE,39,0.0,0.0,90,0.00,,SKC,0.00,VWS V13.01,2013-08-06 07:05:00,
2013-08-06 02:10:00,73.5,70.4,29.90,NE,39,0.0,0.0,90,0.00,,SKC,0.00,VWS V13.01,2013-08-06 07:10:00,
2013-08-06 02:15:00,73.5,70.4,29.90,NE,39,0.0,0.0,90,0.00,,SKC,0.00,VWS V13.01,2013-08-06 07:15:00,
2013-08-06 02:20:00,73.3,70.2,29.90,NE,39,0.0,0.0,90,0.00,,SKC,0.00,VWS V13.01,2013-08-06 07:20:00,
2013-08-06 02:25:00,73.3,70.2,29.89,NE,39,0.0,0.0,90,0.00,,SKC,0.00,VWS V13.01,2013-08-06 07:25:00,
2013-08-06 02:30:00,73.2,70.1,29.89,NE,39,0.0,0.0,90,0.00,,SKC,0.00,VWS V13.01,2013-08-06 07:30:00,
2013-08-06 02:35:00,73.1,70.3,29.88,NE,39,0.0,0.0,91,0.00,,SKC,0.00,VWS V13.01,2013-08-06 07:35:00,
2013-08-06 02:40:00,72.9,70.1,29.88,NE,39,0.0,0.0,91,0.00,,SKC,0.00,VWS V13.01,2013-08-06 07:40:00,
2013-08-06 02:45:00,72.8,70.0,29.89,NE,39,0.0,0.0,91,0.00,,SKC,0.00,VWS V13.01,2013-08-06 07:45:00,
2013-08-06 02:50:00,72.8,70.0,29.89,NE,39,0.0,0.0,91,0.00,,SKC,0.00,VWS V13.01,2013-08-06 07:50:00,
2013-08-06 02:55:00,72.8,70.3,29.89,NE,39,0.0,0.0,92,0.00,,SKC,0.00,VWS V13.01,2013-08-06 07:55:00,
2013-08-06 03:00:00,73.0,70.5,29.89,NE,39,0.0,0.0,92,0.00,,SKC,0.00,VWS V13.01,2013-08-06 08:00:00,
2013-08-06 03:05:00,73.0,70.5,29.89,NE,39,0.0,0.0,92,0.00,,SKC,0.00,VWS V13.01,2013-08-06 08:05:00,
2013-08-06 03:10:00,72.9,70.4,29.89,NE,39,0.0,0.0,92,0.00,,SKC,0.00,VWS V13.01,2013-08-06 08:10:00,
2013-08-06 03:15:00,72.8,70.3,29.90,NE,39,0.0,0.0,92,0.00,,SKC,0.00,VWS V13.01,2013-08-06 08:15:00,
2013-08-06 03:20:00,72.7,70.2,29.90,NE,39,0.0,0.0,92,0.00,,SKC,0.00,VWS V13.01,2013-08-06 08:20:00,
2013-08-06 03:25:00,72.6,70.2,29.90,NE,39,0.0,0.0,92,0.00,,SKC,0.00,VWS V13.01,2013-08-06 08:25:00,
2013-08-06 03:30:00,72.5,70.1,29.89,NE,39,0.0,0.0,92,0.00,,SKC,0.00,VWS V13.01,2013-08-06 08:30:00,
2013-08-06 03:35:00,72.4,69.9,29.89,NE,39,0.0,0.0,92,0.00,,SKC,0.00,VWS V13.01,2013-08-06 08:35:00,
2013-08-06 03:40:00,72.2,69.8,29.89,NE,39,0.0,0.0,92,0.00,,SKC,0.00,VWS V13.01,2013-08-06 08:40:00,
2013-08-06 03:45:00,72.1,69.7,29.89,NE,39,0.0,0.0,92,0.00,,SKC,0.00,VWS V13.01,2013-08-06 08:45:00,
2013-08-06 03:50:00,72.0,69.6,29.88,NE,39,0.0,0.0,92,0.00,,SKC,0.00,VWS V13.01,2013-08-06 08:50:00,
2013-08-06 03:55:00,72.1,69.7,29.88,NE,39,0.0,0.0,92,0.00,,SKC,0.00,VWS V13.01,2013-08-06 08:55:00,
2013-08-06 04:00:00,72.1,70.0,29.88,NE,39,0.0,0.0,93,0.00,,SKC,0.00,VWS V13.01,2013-08-06 09:00:00,
2013-08-06 04:05:00,72.1,70.0,29.88,NE,39,0.0,0.0,93,0.00,,SKC,0.00,VWS V13.01,2013-08-06 09:05:00,
2013-08-06 04:10:00,72.0,69.9,29.88,NE,39,0.0,0.0,93,0.00,,SKC,0.00,VWS V13.01,2013-08-06 09:10:00,
2013-08-06 04:15:00,72.1,70.0,29.88,NE,39,0.0,0.0,93,0.00,,SKC,0.00,VWS V13.01,2013-08-06 09:15:00,
2013-08-06 04:20:00,72.1,70.0,29.88,NE,39,0.0,0.0,93,0.00,,SKC,0.00,VWS V13.01,2013-08-06 09:20:00,
2013-08-06 04:25:00,72.1,70.0,29.87,NE,39,0.0,0.0,93,0.00,,SKC,0.00,VWS V13.01,2013-08-06 09:25:00,
2013-08-06 04:30:00,72.2,70.1,29.87,NE,39,0.0,0.0,93,0.00,,SKC,0.00,VWS V13.01,2013-08-06 09:30:00,
2013-08-06 04:35:00,72.2,70.1,29.86,NE,39,0.0,0.0,93,0.00,,SKC,0.00,VWS V13.01,2013-08-06 09:35:00,
2013-08-06 04:40:00,72.2,70.1,29.86,NE,39,0.0,0.0,93,0.00,,SKC,0.00,VWS V13.01,2013-08-06 09:40:00,
2013-08-06 04:45:00,72.2,70.1,29.86,NE,39,0.0,0.0,93,0.00,,SKC,0.00,VWS V13.01,2013-08-06 09:45:00,
2013-08-06 04:50:00,72.1,70.0,29.86,NE,39,0.0,0.0,93,0.00,,SKC,0.00,VWS V13.01,2013-08-06 09:50:00,
2013-08-06 04:55:00,72.0,69.9,29.87,NE,39,0.0,0.0,93,0.00,,SKC,0.00,VWS V13.01,2013-08-06 09:55:00,
2013-08-06 05:00:00,71.9,69.8,29.87,NE,39,0.0,0.0,93,0.00,,SKC,0.00,VWS V13.01,2013-08-06 10:00:00,
2013-08-06 05:05:00,72.0,69.9,29.87,NE,39,0.0,0.0,93,0.00,,SKC,0.00,VWS V13.01,2013-08-06 10:05:00,
2013-08-06 05:10:00,72.0,69.9,29.87,NE,39,0.0,0.0,93,0.00,,SKC,0.00,VWS V13.01,2013-08-06 10:10:00,
2013-08-06 05:15:00,72.0,69.9,29.87,NE,39,0.0,0.0,93,0.00,,SKC,0.00,VWS V13.01,2013-08-06 10:15:00,
2013-08-06 05:20:00,72.0,69.9,29.86,NE,39,0.0,0.0,93,0.00,,SKC,0.00,VWS V13.01,2013-08-06 10:20:00,
2013-08-06 05:25:00,72.1,70.0,29.86,NE,39,0.0,0.0,93,0.00,,SKC,0.00,VWS V13.01,2013-08-06 10:25:00,
2013-08-06 05:30:00,72.0,69.9,29.86,NE,39,0.0,0.0,93,0.00,,SKC,0.00,VWS V13.01,2013-08-06 10:30:00,
2013-08-06 05:35:00,72.0,69.9,29.86,NE,39,0.0,0.0,93,0.00,,SKC,0.00,VWS V13.01,2013-08-06 10:35:00,
2013-08-06 05:40:00,71.9,69.8,29.87,NE,39,0.0,0.0,93,0.00,,SKC,0.00,VWS V13.01,2013-08-06 10:40:00,
2013-08-06 05:45:00,71.9,69.8,29.87,NE,39,0.0,0.0,93,0.00,,SKC,0.00,VWS V13.01,2013-08-06 10:45:00,
2013-08-06 05:50:00,71.9,69.8,29.88,NE,39,0.0,0.0,93,0.00,,SKC,0.00,VWS V13.01,2013-08-06 10:50:00,
2013-08-06 05:55:00,71.9,69.8,29.88,NE,39,0.0,0.0,93,0.00,,SKC,0.00,VWS V13.01,2013-08-06 10:55:00,
2013-08-06 06:00:00,71.9,70.1,29.88,NE,39,0.0,0.0,94,0.00,,SKC,0.00,VWS V13.01,2013-08-06 11:00:00,
2013-08-06 06:05:00,72.0,70.2,29.87,NE,39,0.0,0.0,94,0.00,,SKC,0.00,VWS V13.01,2013-08-06 11:05:00,
2013-08-06 06:10:00,72.0,70.2,29.88,NE,39,0.0,0.0,94,0.00,,SKC,0.00,VWS V13.01,2013-08-06 11:10:00,
2013-08-06 06:15:00,72.0,70.2,29.88,NE,39,0.0,0.0,94,0.00,,SKC,0.00,VWS V13.01,2013-08-06 11:15:00,
2013-08-06 06:20:00,72.0,70.2,29.88,NE,39,0.0,0.0,94,0.00,,SKC,0.00,VWS V13.01,2013-08-06 11:20:00,
2013-08-06 06:25:00,72.0,70.2,29.88,NE,39,0.0,0.0,94,0.00,,SKC,0.00,VWS V13.01,2013-08-06 11:25:00,
2013-08-06 06:31:00,72.1,70.3,29.88,NE,39,0.0,0.0,94,0.00,,SKC,0.00,VWS V13.01,2013-08-06 11:31:00,
2013-08-06 06:36:00,72.2,70.4,29.90,NE,39,0.0,0.0,94,0.00,,SKC,0.00,VWS V13.01,2013-08-06 11:36:00,
2013-08-06 06:41:00,72.3,70.5,29.90,NE,39,0.0,0.0,94,0.00,,SKC,0.00,VWS V13.01,2013-08-06 11:41:00,
2013-08-06 06:46:00,72.2,70.4,29.90,NE,39,0.0,0.0,94,0.00,,SKC,0.00,VWS V13.01,2013-08-06 11:46:00,
2013-08-06 06:51:00,72.2,70.4,29.89,NE,39,0.0,0.0,94,0.00,,SKC,0.00,VWS V13.01,2013-08-06 11:51:00,
2013-08-06 06:56:00,72.3,70.5,29.89,NE,39,0.0,0.0,94,0.00,,SKC,0.00,VWS V13.01,2013-08-06 11:56:00,
2013-08-06 07:01:00,72.3,70.5,29.89,NE,39,0.0,0.0,94,0.00,,SKC,0.00,VWS V13.01,2013-08-06 12:01:00,
2013-08-06 07:07:00,72.3,70.5,29.90,NE,40,0.0,0.0,94,0.00,,SKC,0.00,VWS V13.01,2013-08-06 12:07:00,
2013-08-06 07:12:00,72.5,70.7,29.90,NE,41,0.0,1.0,94,0.00,,SKC,0.00,VWS V13.01,2013-08-06 12:12:00,
2013-08-06 07:17:00,72.6,70.8,29.89,NE,41,0.0,0.0,94,0.00,,SKC,0.00,VWS V13.01,2013-08-06 12:17:00,
2013-08-06 07:22:00,72.6,70.8,29.89,NE,41,0.0,0.0,94,0.00,,SKC,0.00,VWS V13.01,2013-08-06 12:22:00,
2013-08-06 07:27:00,72.7,70.9,29.91,NE,41,0.0,0.0,94,0.00,,SKC,0.00,VWS V13.01,2013-08-06 12:27:00,
2013-08-06 07:32:00,72.8,71.0,29.92,NE,40,0.0,0.0,94,0.00,,SKC,0.00,VWS V13.01,2013-08-06 12:32:00,
2013-08-06 07:37:00,72.8,71.0,29.92,NE,40,0.0,1.0,94,0.00,,SKC,0.00,VWS V13.01,2013-08-06 12:37:00,
2013-08-06 07:42:00,72.9,71.1,29.92,NE,40,0.0,0.0,94,0.00,,SKC,0.00,VWS V13.01,2013-08-06 12:42:00,
2013-08-06 07:47:00,72.8,71.0,29.94,NNW,328,9.0,13.0,94,0.00,,SKC,0.00,VWS V13.01,2013-08-06 12:47:00,
2013-08-06 07:52:00,71.3,68.2,29.94,North,358,6.0,14.0,90,0.00,,SKC,0.00,VWS V13.01,2013-08-06 12:52:00,
2013-08-06 07:57:00,70.7,67.6,29.94,NE,55,10.0,10.0,90,0.00,,SKC,0.00,VWS V13.01,2013-08-06 12:57:00,
2013-08-06 08:02:00,70.5,67.1,29.94,NNE,23,4.0,7.0,89,0.00,,SKC,0.00,VWS V13.01,2013-08-06 13:02:00,
2013-08-06 08:07:00,70.2,66.5,29.94,East,85,2.0,11.0,88,0.00,,SKC,0.00,VWS V13.01,2013-08-06 13:07:00,
2013-08-06 08:12:00,70.0,66.0,29.94,ENE,59,4.0,8.0,87,0.00,,SKC,0.00,VWS V13.01,2013-08-06 13:12:00,
2013-08-06 08:17:00,69.8,65.8,29.93,East,83,0.0,8.0,87,0.00,,SKC,0.00,VWS V13.01,2013-08-06 13:17:00,
2013-08-06 08:22:00,69.6,65.6,29.93,NNE,27,8.0,10.0,87,0.00,,SKC,0.00,VWS V13.01,2013-08-06 13:22:00,
2013-08-06 08:27:00,69.5,65.8,29.94,ENE,64,1.0,8.0,88,0.00,,SKC,0.00,VWS V13.01,2013-08-06 13:27:00,
2013-08-06 08:32:00,69.5,65.8,29.94,NE,37,4.0,5.0,88,0.00,,SKC,0.00,VWS V13.01,2013-08-06 13:32:00,
2013-08-06 08:37:00,69.5,65.8,29.95,NE,35,0.0,0.0,88,0.00,,SKC,0.00,VWS V13.01,2013-08-06 13:37:00,
2013-08-06 08:42:00,69.7,66.0,29.95,NE,37,0.0,0.0,88,0.00,,SKC,0.00,VWS V13.01,2013-08-06 13:42:00,
2013-08-06 08:47:00,69.9,65.9,29.95,NE,36,0.0,0.0,87,0.00,,SKC,0.00,VWS V13.01,2013-08-06 13:47:00,
2013-08-06 08:52:00,70.1,66.1,29.96,NE,36,0.0,0.0,87,0.00,,SKC,0.00,VWS V13.01,2013-08-06 13:52:00,
2013-08-06 08:57:00,70.2,65.8,29.97,NE,36,0.0,0.0,86,0.00,,SKC,0.00,VWS V13.01,2013-08-06 13:57:00,
2013-08-06 09:02:00,70.3,65.9,29.98,WNW,287,0.0,4.0,86,0.00,,SKC,0.00,VWS V13.01,2013-08-06 14:02:00,
2013-08-06 09:07:00,70.2,65.8,29.99,WNW,295,0.0,0.0,86,0.00,,SKC,0.00,VWS V13.01,2013-08-06 14:07:00,
2013-08-06 09:12:00,70.1,65.7,29.99,NW,317,4.0,10.0,86,0.00,,SKC,0.00,VWS V13.01,2013-08-06 14:12:00,
2013-08-06 09:17:00,69.8,65.4,29.99,West,281,8.0,8.0,86,0.00,,SKC,0.00,VWS V13.01,2013-08-06 14:17:00,
2013-08-06 09:22:00,69.2,64.8,29.98,NE,47,10.0,11.0,86,0.00,,SKC,0.00,VWS V13.01,2013-08-06 14:22:00,
2013-08-06 09:27:00,68.1,64.1,29.97,NNE,16,7.0,15.0,87,0.00,,SKC,0.00,VWS V13.01,2013-08-06 14:27:00,
2013-08-06 09:32:00,67.4,64.1,29.95,NE,51,8.0,14.0,89,0.00,,SKC,0.00,VWS V13.01,2013-08-06 14:32:00,
2013-08-06 09:37:00,67.2,64.2,29.94,ENE,70,3.0,10.0,90,0.01,,SKC,0.01,VWS V13.01,2013-08-06 14:37:00,
2013-08-06 09:42:00,67.1,64.4,29.93,NE,47,5.0,7.0,91,0.01,,SKC,0.01,VWS V13.01,2013-08-06 14:42:00,
2013-08-06 09:47:00,67.3,64.9,29.93,NE,46,5.0,7.0,92,0.01,,SKC,0.01,VWS V13.01,2013-08-06 14:47:00,
2013-08-06 09:52:00,67.5,65.1,29.92,NE,46,4.0,4.0,92,0.01,,SKC,0.01,VWS V13.01,2013-08-06 14:52:00,
2013-08-06 09:57:00,67.7,65.3,29.92,NE,54,1.0,6.0,92,0.01,,SKC,0.01,VWS V13.01,2013-08-06 14:57:00,
2013-08-06 10:02:00,67.7,65.3,29.91,East,87,5.0,8.0,92,0.01,,SKC,0.01,VWS V13.01,2013-08-06 15:02:00,
2013-08-06 10:07:00,67.9,65.5,29.90,East,85,7.0,12.0,92,0.01,,SKC,0.01,VWS V13.01,2013-08-06 15:07:00,
2013-08-06 10:12:00,68.1,65.7,29.91,ESE,103,7.0,11.0,92,0.01,,SKC,0.01,VWS V13.01,2013-08-06 15:12:00,
2013-08-06 10:17:00,68.4,66.0,29.90,SE,134,7.0,7.0,92,0.01,,SKC,0.01,VWS V13.01,2013-08-06 15:17:00,
2013-08-06 10:22:00,68.7,66.6,29.90,East,87,0.0,0.0,93,0.01,,SKC,0.01,VWS V13.01,2013-08-06 15:22:00,
2013-08-06 10:27:00,69.1,67.0,29.90,East,83,0.0,0.0,93,0.01,,SKC,0.01,VWS V13.01,2013-08-06 15:27:00,
2013-08-06 10:32:00,69.4,67.3,29.90,East,83,0.0,0.0,93,0.01,,SKC,0.01,VWS V13.01,2013-08-06 15:32:00,
2013-08-06 10:37:00,69.6,67.2,29.91,East,84,0.0,0.0,92,0.00,,SKC,0.01,VWS V13.01,2013-08-06 15:37:00,
2013-08-06 10:42:00,70.4,68.3,29.91,East,84,0.0,0.0,93,0.00,,SKC,0.01,VWS V13.01,2013-08-06 15:42:00,
2013-08-06 10:47:00,70.5,67.8,29.91,East,85,0.0,0.0,91,0.00,,SKC,0.01,VWS V13.01,2013-08-06 15:47:00,
2013-08-06 10:52:00,70.3,67.6,29.90,East,89,0.0,0.0,91,0.00,,SKC,0.01,VWS V13.01,2013-08-06 15:52:00,
2013-08-06 10:57:00,70.8,67.7,29.90,SSE,160,0.0,0.0,90,0.00,,SKC,0.01,VWS V13.01,2013-08-06 15:57:00,
2013-08-06 11:02:00,71.4,68.0,29.90,SW,214,0.0,0.0,89,0.00,,SKC,0.01,VWS V13.01,2013-08-06 16:02:00,
2013-08-06 11:07:00,72.1,68.3,29.90,South,171,1.0,3.0,88,0.00,,SKC,0.01,VWS V13.01,2013-08-06 16:07:00,
2013-08-06 11:12:00,72.7,67.9,29.90,SSW,201,0.0,7.0,85,0.01,,SKC,0.02,VWS V13.01,2013-08-06 16:12:00,
2013-08-06 11:17:00,73.0,67.9,29.90,SE,132,0.0,0.0,84,0.01,,SKC,0.02,VWS V13.01,2013-08-06 16:17:00,
2013-08-06 11:22:00,73.4,67.6,29.90,SSW,197,3.0,5.0,82,0.01,,SKC,0.02,VWS V13.01,2013-08-06 16:22:00,
2013-08-06 11:27:00,73.9,68.1,29.89,ENE,68,0.0,0.0,82,0.01,,SKC,0.02,VWS V13.01,2013-08-06 16:27:00,
2013-08-06 11:32:00,74.4,68.2,29.90,South,188,0.0,0.0,81,0.01,,SKC,0.02,VWS V13.01,2013-08-06 16:32:00,
2013-08-06 11:37:00,75.2,68.6,29.90,South,173,0.0,2.0,80,0.01,,SKC,0.02,VWS V13.01,2013-08-06 16:37:00,
2013-08-06 11:42:00,75.9,68.6,29.89,SSE,160,0.0,6.0,78,0.01,,SKC,0.02,VWS V13.01,2013-08-06 16:42:00,
2013-08-06 11:47:00,76.6,68.9,29.89,SSW,197,0.0,4.0,77,0.01,,SKC,0.02,VWS V13.01,2013-08-06 16:47:00,
2013-08-06 11:52:00,77.4,69.6,29.89,SSW,197,0.0,0.0,77,0.01,,SKC,0.02,VWS V13.01,2013-08-06 16:52:00,
2013-08-06 11:57:00,78.4,69.0,29.88,SSW,199,0.0,3.0,73,0.01,,SKC,0.02,VWS V13.01,2013-08-06 16:57:00,
2013-08-06 12:02:00,79.3,69.1,29.88,SW,217,1.0,4.0,71,0.01,,SKC,0.02,VWS V13.01,2013-08-06 17:02:00,
2013-08-06 12:07:00,80.0,69.8,29.88,South,187,0.0,8.0,71,0.01,,SKC,0.02,VWS V13.01,2013-08-06 17:07:00,
2013-08-06 12:13:00,81.2,70.5,29.87,SSE,158,0.0,0.0,70,0.00,,SKC,0.02,VWS V13.01,2013-08-06 17:13:00,
2013-08-06 12:19:00,82.6,70.5,29.86,South,178,0.0,9.0,67,0.00,,SKC,0.02,VWS V13.01,2013-08-06 17:19:00,
2013-08-06 12:24:00,83.4,71.3,29.86,SSW,201,5.0,10.0,67,0.00,,SKC,0.02,VWS V13.01,2013-08-06 17:24:00,
2013-08-06 12:27:00,83.3,71.2,29.86,SSW,200,3.0,5.0,67,0.00,,SKC,0.02,VWS V13.01,2013-08-06 17:27:00,
2013-08-06 12:32:00,83.0,71.8,29.85,SSW,210,3.0,4.0,69,0.00,,SKC,0.02,VWS V13.01,2013-08-06 17:32:00,
2013-08-06 12:37:00,82.6,70.5,29.86,SW,215,3.0,9.0,67,0.00,,SKC,0.02,VWS V13.01,2013-08-06 17:37:00,
2013-08-06 12:42:00,83.2,70.7,29.85,SSW,212,4.0,7.0,66,0.00,,SKC,0.02,VWS V13.01,2013-08-06 17:42:00,
2013-08-06 12:47:00,83.8,71.2,29.85,SSW,204,3.0,6.0,66,0.00,,SKC,0.02,VWS V13.01,2013-08-06 17:47:00,
2013-08-06 12:52:00,85.4,72.8,29.86,SSE,160,1.0,4.0,66,0.00,,SKC,0.02,VWS V13.01,2013-08-06 17:52:00,
2013-08-06 12:57:00,87.0,72.4,29.86,SW,214,0.0,2.0,62,0.00,,SKC,0.02,VWS V13.01,2013-08-06 17:57:00,
2013-08-06 13:02:00,86.3,70.8,29.85,SSW,205,11.0,11.0,60,0.00,,SKC,0.02,VWS V13.01,2013-08-06 18:02:00,
2013-08-06 13:07:00,85.7,71.7,29.85,SW,224,13.0,13.0,63,0.00,,SKC,0.02,VWS V13.01,2013-08-06 18:07:00,
2013-08-06 13:12:00,85.4,70.9,29.85,South,178,4.0,9.0,62,0.00,,SKC,0.02,VWS V13.01,2013-08-06 18:12:00,
2013-08-06 13:17:00,85.6,71.6,29.85,SSW,201,0.0,10.0,63,0.00,,SKC,0.02,VWS V13.01,2013-08-06 18:17:00,
2013-08-06 13:22:00,86.1,71.6,29.85,SSW,202,3.0,7.0,62,0.00,,SKC,0.02,VWS V13.01,2013-08-06 18:22:00,
2013-08-06 13:27:00,86.1,71.6,29.85,SSW,193,3.0,6.0,62,0.00,,SKC,0.02,VWS V13.01,2013-08-06 18:27:00,
2013-08-06 13:32:00,86.4,71.8,29.85,SSW,201,0.0,9.0,62,0.00,,SKC,0.02,VWS V13.01,2013-08-06 18:32:00,
2013-08-06 13:37:00,87.5,72.4,29.85,South,189,3.0,8.0,61,0.00,,SKC,0.02,VWS V13.01,2013-08-06 18:37:00,
2013-08-06 13:42:00,87.8,72.2,29.86,East,86,4.0,10.0,60,0.00,,SKC,0.02,VWS V13.01,2013-08-06 18:42:00,
2013-08-06 13:47:00,87.5,72.4,29.85,SE,124,1.0,11.0,61,0.00,,SKC,0.02,VWS V13.01,2013-08-06 18:47:00,
2013-08-06 13:52:00,87.1,72.0,29.85,SW,228,7.0,13.0,61,0.00,,SKC,0.02,VWS V13.01,2013-08-06 18:52:00,
2013-08-06 13:57:00,87.5,71.9,29.85,SW,214,0.0,8.0,60,0.00,,SKC,0.02,VWS V13.01,2013-08-06 18:57:00,
2013-08-06 14:02:00,87.5,72.4,29.85,SW,222,4.0,9.0,61,0.00,,SKC,0.02,VWS V13.01,2013-08-06 19:02:00,
2013-08-06 14:07:00,87.8,72.2,29.85,South,182,4.0,9.0,60,0.00,,SKC,0.02,VWS V13.01,2013-08-06 19:07:00,
2013-08-06 14:12:00,88.1,73.0,29.85,SSW,202,8.0,8.0,61,0.00,,SKC,0.02,VWS V13.01,2013-08-06 19:12:00,
2013-08-06 14:17:00,88.3,72.7,29.85,SW,228,4.0,6.0,60,0.00,,SKC,0.02,VWS V13.01,2013-08-06 19:17:00,
2013-08-06 14:23:00,88.8,73.1,29.85,SSE,149,0.0,7.0,60,0.00,,SKC,0.02,VWS V13.01,2013-08-06 19:23:00,
2013-08-06 14:29:00,88.8,72.6,29.85,SSW,204,4.0,8.0,59,0.00,,SKC,0.02,VWS V13.01,2013-08-06 19:29:00,
2013-08-06 14:34:00,88.4,72.8,29.85,SW,235,12.0,13.0,60,0.00,,SKC,0.02,VWS V13.01,2013-08-06 19:34:00,
2013-08-06 14:39:00,88.0,73.8,29.85,SW,232,3.0,4.0,63,0.00,,SKC,0.02,VWS V13.01,2013-08-06 19:39:00,
2013-08-06 14:44:00,88.3,73.6,29.85,South,186,4.0,8.0,62,0.00,,SKC,0.02,VWS V13.01,2013-08-06 19:44:00,
2013-08-06 14:49:00,88.7,73.5,29.85,South,188,0.0,7.0,61,0.00,,SKC,0.02,VWS V13.01,2013-08-06 19:49:00,
2013-08-06 14:54:00,89.1,73.4,29.85,South,191,3.0,8.0,60,0.00,,SKC,0.02,VWS V13.01,2013-08-06 19:54:00,
2013-08-06 14:59:00,88.4,73.7,29.85,WSW,257,4.0,7.0,62,0.00,,SKC,0.02,VWS V13.01,2013-08-06 19:59:00,
2013-08-06 15:04:00,89.9,74.2,29.85,SSE,168,0.0,1.0,60,0.00,,SKC,0.02,VWS V13.01,2013-08-06 20:04:00,
2013-08-06 15:09:00,90.5,73.2,29.85,ESE,122,0.0,7.0,57,0.00,,SKC,0.02,VWS V13.01,2013-08-06 20:09:00,
2013-08-06 15:14:00,89.6,73.4,29.85,SSW,199,10.0,13.0,59,0.00,,SKC,0.02,VWS V13.01,2013-08-06 20:14:00,
2013-08-06 15:19:00,88.8,73.6,29.85,SSE,168,0.0,8.0,61,0.00,,SKC,0.02,VWS V13.01,2013-08-06 20:19:00,
2013-08-06 15:25:00,89.2,74.0,29.85,SW,218,1.0,5.0,61,0.00,,SKC,0.02,VWS V13.01,2013-08-06 20:25:00,
2013-08-06 15:30:00,89.2,74.0,29.85,SSW,197,4.0,7.0,61,0.00,,SKC,0.02,VWS V13.01,2013-08-06 20:30:00,
2013-08-06 15:34:00,89.7,73.5,29.85,WSW,241,4.0,8.0,59,0.00,,SKC,0.02,VWS V13.01,2013-08-06 20:34:00,
2013-08-06 15:39:00,89.5,74.3,29.85,SSW,195,0.0,6.0,61,0.00,,SKC,0.02,VWS V13.01,2013-08-06 20:39:00,
2013-08-06 15:44:00,89.8,74.1,29.85,WSW,239,4.0,6.0,60,0.00,,SKC,0.02,VWS V13.01,2013-08-06 20:44:00,
2013-08-06 15:49:00,89.5,74.8,29.85,SSW,196,4.0,7.0,62,0.00,,SKC,0.02,VWS V13.01,2013-08-06 20:49:00,
2013-08-06 15:54:00,89.8,74.1,29.85,SW,236,4.0,5.0,60,0.00,,SKC,0.02,VWS V13.01,2013-08-06 20:54:00,
2013-08-06 15:59:00,89.9,74.2,29.85,West,261,4.0,7.0,60,0.00,,SKC,0.02,VWS V13.01,2013-08-06 20:59:00,
2013-08-06 16:04:00,89.4,74.2,29.85,East,101,7.0,7.0,61,0.00,,SKC,0.02,VWS V13.01,2013-08-06 21:04:00,
2013-08-06 16:09:00,89.7,74.5,29.86,West,260,0.0,2.0,61,0.00,,SKC,0.02,VWS V13.01,2013-08-06 21:09:00,
2013-08-06 16:14:00,89.7,74.5,29.85,WSW,245,5.0,8.0,61,0.00,,SKC,0.02,VWS V13.01,2013-08-06 21:14:00,
2013-08-06 16:19:00,88.7,74.0,29.85,SW,224,0.0,8.0,62,0.00,,SKC,0.02,VWS V13.01,2013-08-06 21:19:00,
2013-08-06 16:24:00,88.3,73.6,29.85,SW,236,10.0,11.0,62,0.00,,SKC,0.02,VWS V13.01,2013-08-06 21:24:00,
2013-08-06 16:29:00,87.6,74.4,29.86,SW,217,3.0,5.0,65,0.00,,SKC,0.02,VWS V13.01,2013-08-06 21:29:00,
2013-08-06 16:34:00,87.9,74.7,29.85,WSW,253,8.0,10.0,65,0.00,,SKC,0.02,VWS V13.01,2013-08-06 21:34:00,
2013-08-06 16:39:00,88.4,74.2,29.85,SW,228,0.0,6.0,63,0.00,,SKC,0.02,VWS V13.01,2013-08-06 21:39:00,
2013-08-06 16:44:00,89.0,74.3,29.86,WSW,258,0.0,4.0,62,0.00,,SKC,0.02,VWS V13.01,2013-08-06 21:44:00,
2013-08-06 16:49:00,89.0,74.3,29.85,WSW,257,2.0,7.0,62,0.00,,SKC,0.02,VWS V13.01,2013-08-06 21:49:00,
2013-08-06 16:54:00,88.7,75.0,29.86,WSW,256,2.0,2.0,64,0.00,,SKC,0.02,VWS V13.01,2013-08-06 21:54:00,
2013-08-06 17:00:00,89.0,75.2,29.85,West,281,0.0,0.0,64,0.00,,SKC,0.02,VWS V13.01,2013-08-06 22:00:00,
2013-08-06 17:05:00,89.2,75.0,29.85,West,263,0.0,1.0,63,0.00,,SKC,0.02,VWS V13.01,2013-08-06 22:05:00,
2013-08-06 17:10:00,88.7,74.0,29.85,West,280,7.0,10.0,62,0.00,,SKC,0.02,VWS V13.01,2013-08-06 22:10:00,
2013-08-06 17:16:00,88.6,74.4,29.85,SW,222,0.0,2.0,63,0.00,,SKC,0.02,VWS V13.01,2013-08-06 22:16:00,
2013-08-06 17:21:00,88.6,74.4,29.86,SW,221,6.0,6.0,63,0.00,,SKC,0.02,VWS V13.01,2013-08-06 22:21:00,
2013-08-06 17:26:00,88.5,75.2,29.85,West,266,0.0,0.0,65,0.00,,SKC,0.02,VWS V13.01,2013-08-06 22:26:00,
2013-08-06 17:31:00,89.5,74.8,29.85,West,267,0.0,4.0,62,0.00,,SKC,0.02,VWS V13.01,2013-08-06 22:31:00,
2013-08-06 17:36:00,89.4,74.2,29.85,West,264,0.0,0.0,61,0.00,,SKC,0.02,VWS V13.01,2013-08-06 22:36:00,
2013-08-06 17:41:00,90.0,74.8,29.85,West,264,0.0,0.0,61,0.00,,SKC,0.02,VWS V13.01,2013-08-06 22:41:00,
2013-08-06 17:46:00,90.4,75.6,29.85,West,279,0.0,0.0,62,0.00,,SKC,0.02,VWS V13.01,2013-08-06 22:46:00,
2013-08-06 17:51:00,90.0,74.8,29.85,West,274,0.0,0.0,61,0.00,,SKC,0.02,VWS V13.01,2013-08-06 22:51:00,
2013-08-06 17:56:00,89.6,75.3,29.86,West,274,0.0,0.0,63,0.00,,SKC,0.02,VWS V13.01,2013-08-06 22:56:00,
2013-08-06 18:01:00,89.4,75.2,29.85,West,274,0.0,0.0,63,0.00,,SKC,0.02,VWS V13.01,2013-08-06 23:01:00,
2013-08-06 18:06:00,89.5,74.8,29.85,West,268,0.0,0.0,62,0.00,,SKC,0.02,VWS V13.01,2013-08-06 23:06:00,
2013-08-06 18:11:00,89.8,75.1,29.85,West,268,0.0,0.0,62,0.00,,SKC,0.02,VWS V13.01,2013-08-06 23:11:00,
2013-08-06 18:16:00,90.4,75.1,29.85,West,268,0.0,0.0,61,0.00,,SKC,0.02,VWS V13.01,2013-08-06 23:16:00,
2013-08-06 18:22:00,90.2,74.9,29.85,West,268,0.0,0.0,61,0.00,,SKC,0.02,VWS V13.01,2013-08-06 23:22:00,
2013-08-06 18:27:00,90.3,75.5,29.85,West,268,0.0,0.0,62,0.00,,SKC,0.02,VWS V13.01,2013-08-06 23:27:00,
2013-08-06 18:32:00,90.5,75.2,29.85,WSW,257,0.0,3.0,61,0.00,,SKC,0.02,VWS V13.01,2013-08-06 23:32:00,
2013-08-06 18:37:00,91.0,75.2,29.85,WNW,282,4.0,5.0,60,0.00,,SKC,0.02,VWS V13.01,2013-08-06 23:37:00,
2013-08-06 18:42:00,91.2,74.9,29.85,WNW,282,0.0,0.0,59,0.00,,SKC,0.02,VWS V13.01,2013-08-06 23:42:00,
2013-08-06 18:47:00,91.1,74.8,29.85,WNW,282,0.0,0.0,59,0.00,,SKC,0.02,VWS V13.01,2013-08-06 23:47:00,
2013-08-06 18:52:00,91.0,75.2,29.85,WNW,282,0.0,0.0,60,0.00,,SKC,0.02,VWS V13.01,2013-08-06 23:52:00,
2013-08-06 18:57:00,90.3,74.5,29.84,WNW,282,0.0,1.0,60,0.00,,SKC,0.02,VWS V13.01,2013-08-06 23:57:00,
2013-08-06 19:03:00,90.1,75.3,29.84,WNW,282,0.0,0.0,62,0.00,,SKC,0.02,VWS V13.01,2013-08-07 00:03:00,
2013-08-06 19:09:00,90.8,75.5,29.84,WNW,282,0.0,0.0,61,0.00,,SKC,0.02,VWS V13.01,2013-08-07 00:09:00,
2013-08-06 19:14:00,91.3,75.5,29.84,WNW,282,0.0,0.0,60,0.00,,SKC,0.02,VWS V13.01,2013-08-07 00:14:00,
2013-08-06 19:19:00,91.7,75.8,29.84,WNW,282,0.0,0.0,60,0.00,,SKC,0.02,VWS V13.01,2013-08-07 00:19:00,
2013-08-06 19:24:00,91.5,75.7,29.84,WNW,282,0.0,0.0,60,0.00,,SKC,0.02,VWS V13.01,2013-08-07 00:24:00,
2013-08-06 19:29:00,91.3,75.5,29.85,WNW,282,0.0,0.0,60,0.00,,SKC,0.02,VWS V13.01,2013-08-07 00:29:00,
2013-08-06 19:34:00,91.3,75.0,29.84,WNW,282,0.0,0.0,59,0.00,,SKC,0.02,VWS V13.01,2013-08-07 00:34:00,
2013-08-06 19:39:00,91.5,75.7,29.84,WNW,282,0.0,0.0,60,0.00,,SKC,0.02,VWS V13.01,2013-08-07 00:39:00,
2013-08-06 19:44:00,91.6,75.2,29.84,WNW,282,0.0,0.0,59,0.00,,SKC,0.02,VWS V13.01,2013-08-07 00:44:00,
2013-08-06 19:49:00,91.3,75.0,29.84,WNW,282,0.0,0.0,59,0.00,,SKC,0.02,VWS V13.01,2013-08-07 00:49:00,
2013-08-06 19:54:00,90.8,75.0,29.84,WNW,282,0.0,0.0,60,0.00,,SKC,0.02,VWS V13.01,2013-08-07 00:54:00,
2013-08-06 19:59:00,90.4,75.1,29.84,WNW,282,0.0,0.0,61,0.00,,SKC,0.02,VWS V13.01,2013-08-07 00:59:00,
2013-08-06 20:04:00,90.1,74.3,29.85,WNW,282,0.0,0.0,60,0.00,,SKC,0.02,VWS V13.01,2013-08-07 01:04:00,
2013-08-06 20:09:00,89.8,74.6,29.86,WNW,282,0.0,0.0,61,0.00,,SKC,0.02,VWS V13.01,2013-08-07 01:09:00,
2013-08-06 20:14:00,89.5,74.8,29.86,WNW,282,0.0,0.0,62,0.00,,SKC,0.02,VWS V13.01,2013-08-07 01:14:00,
2013-08-06 20:19:00,89.2,75.0,29.85,WNW,282,0.0,0.0,63,0.00,,SKC,0.02,VWS V13.01,2013-08-07 01:19:00,
2013-08-06 20:24:00,88.6,74.4,29.84,WNW,282,0.0,0.0,63,0.00,,SKC,0.02,VWS V13.01,2013-08-07 01:24:00,
2013-08-06 20:29:00,87.7,74.0,29.85,WNW,282,0.0,0.0,64,0.00,,SKC,0.02,VWS V13.01,2013-08-07 01:29:00,
2013-08-06 20:34:00,87.2,74.0,29.85,WNW,282,0.0,0.0,65,0.00,,SKC,0.02,VWS V13.01,2013-08-07 01:34:00,
2013-08-06 20:39:00,86.9,74.2,29.85,WNW,282,0.0,0.0,66,0.00,,SKC,0.02,VWS V13.01,2013-08-07 01:39:00,
2013-08-06 20:44:00,86.5,73.8,29.85,WNW,282,0.0,0.0,66,0.00,,SKC,0.02,VWS V13.01,2013-08-07 01:44:00,
2013-08-06 20:49:00,86.2,74.4,29.85,WNW,282,0.0,0.0,68,0.00,,SKC,0.02,VWS V13.01,2013-08-07 01:49:00,
2013-08-06 20:54:00,86.0,74.2,29.85,WNW,282,0.0,0.0,68,0.00,,SKC,0.02,VWS V13.01,2013-08-07 01:54:00,
2013-08-06 20:59:00,85.8,74.0,29.85,WNW,282,0.0,0.0,68,0.00,,SKC,0.02,VWS V13.01,2013-08-07 01:59:00,
2013-08-06 21:04:00,85.6,74.3,29.85,WNW,282,0.0,0.0,69,0.00,,SKC,0.02,VWS V13.01,2013-08-07 02:04:00,
2013-08-06 21:09:00,85.4,74.1,29.85,WNW,282,0.0,0.0,69,0.00,,SKC,0.02,VWS V13.01,2013-08-07 02:09:00,
2013-08-06 21:14:00,85.2,74.3,29.85,WNW,282,0.0,0.0,70,0.00,,SKC,0.02,VWS V13.01,2013-08-07 02:14:00,
2013-08-06 21:19:00,85.0,74.6,29.85,WNW,282,0.0,0.0,71,0.00,,SKC,0.02,VWS V13.01,2013-08-07 02:19:00,
2013-08-06 21:24:00,84.7,74.3,29.84,WNW,282,0.0,0.0,71,0.00,,SKC,0.02,VWS V13.01,2013-08-07 02:24:00,
2013-08-06 21:29:00,84.3,74.3,29.83,WNW,282,0.0,0.0,72,0.00,,SKC,0.02,VWS V13.01,2013-08-07 02:29:00,
2013-08-06 21:34:00,83.6,74.0,29.84,WNW,282,0.0,0.0,73,0.00,,SKC,0.02,VWS V13.01,2013-08-07 02:34:00,
2013-08-06 21:39:00,83.0,74.3,29.85,WNW,282,0.0,0.0,75,0.00,,SKC,0.02,VWS V13.01,2013-08-07 02:39:00,
2013-08-06 21:44:00,82.6,74.3,29.85,WNW,282,0.0,0.0,76,0.00,,SKC,0.02,VWS V13.01,2013-08-07 02:44:00,
2013-08-06 21:49:00,82.3,74.0,29.85,WNW,282,0.0,0.0,76,0.00,,SKC,0.02,VWS V13.01,2013-08-07 02:49:00,
2013-08-06 21:54:00,82.1,74.2,29.85,WNW,282,0.0,0.0,77,0.00,,SKC,0.02,VWS V13.01,2013-08-07 02:54:00,
2013-08-06 21:59:00,82.0,74.1,29.85,WNW,282,0.0,0.0,77,0.00,,SKC,0.02,VWS V13.01,2013-08-07 02:59:00,
2013-08-06 22:04:00,81.8,73.9,29.87,WNW,282,0.0,0.0,77,0.00,,SKC,0.02,VWS V13.01,2013-08-07 03:04:00,
2013-08-06 22:09:00,81.5,74.0,29.88,WNW,282,0.0,0.0,78,0.00,,SKC,0.02,VWS V13.01,2013-08-07 03:09:00,
2013-08-06 22:15:00,81.3,73.8,29.86,WNW,282,0.0,0.0,78,0.00,,SKC,0.02,VWS V13.01,2013-08-07 03:15:00,
2013-08-06 22:20:00,81.2,73.7,29.88,WNW,282,0.0,0.0,78,0.00,,SKC,0.02,VWS V13.01,2013-08-07 03:20:00,
2013-08-06 22:25:00,81.1,74.0,29.88,WNW,282,0.0,0.0,79,0.00,,SKC,0.02,VWS V13.01,2013-08-07 03:25:00,
2013-08-06 22:30:00,81.0,73.9,29.88,WNW,282,0.0,0.0,79,0.00,,SKC,0.02,VWS V13.01,2013-08-07 03:30:00,
2013-08-06 22:35:00,80.9,73.8,29.88,WNW,282,0.0,0.0,79,0.00,,SKC,0.02,VWS V13.01,2013-08-07 03:35:00,
2013-08-06 22:40:00,80.9,74.2,29.88,WNW,282,0.0,0.0,80,0.00,,SKC,0.02,VWS V13.01,2013-08-07 03:40:00,
2013-08-06 22:46:00,80.8,74.1,29.88,WNW,282,0.0,0.0,80,0.00,,SKC,0.02,VWS V13.01,2013-08-07 03:46:00,
2013-08-06 22:51:00,80.7,74.0,29.89,WNW,282,0.0,0.0,80,0.00,,SKC,0.02,VWS V13.01,2013-08-07 03:51:00,
2013-08-06 22:56:00,80.5,73.8,29.89,WNW,282,0.0,0.0,80,0.00,,SKC,0.02,VWS V13.01,2013-08-07 03:56:00,
2013-08-06 23:01:00,80.5,74.1,29.89,WNW,282,0.0,0.0,81,0.00,,SKC,0.02,VWS V13.01,2013-08-07 04:01:00,
2013-08-06 23:02:00,80.5,74.1,29.89,WNW,282,0.0,0.0,81,0.00,,SKC,0.02,VWS V13.01,2013-08-07 04:02:00,
2013-08-06 23:05:00,80.5,74.1,29.89,WNW,282,0.0,0.0,81,0.00,,SKC,0.02,VWS V13.01,2013-08-07 04:05:00,
2013-08-06 23:08:00,80.5,74.1,29.89,WNW,282,0.0,0.0,81,0.00,,SKC,0.02,VWS V13.01,2013-08-07 04:08:00,
2013-08-06 23:13:00,80.4,74.0,29.88,WNW,282,0.0,0.0,81,0.00,,SKC,0.02,VWS V13.01,2013-08-07 04:13:00,
2013-08-06 23:15:00,80.4,74.0,29.88,WNW,282,0.0,0.0,81,0.00,,SKC,0.02,VWS V13.01,2013-08-07 04:15:00,
2013-08-06 23:20:00,80.4,74.0,29.88,WNW,282,0.0,0.0,81,0.00,,SKC,0.02,VWS V13.01,2013-08-07 04:20:00,
2013-08-06 23:25:00,80.4,74.0,29.88,WNW,282,0.0,0.0,81,0.00,,SKC,0.02,VWS V13.01,2013-08-07 04:25:00,
2013-08-06 23:31:00,80.4,74.0,29.88,WNW,282,0.0,0.0,81,0.00,,SKC,0.02,VWS V13.01,2013-08-07 04:31:00,
2013-08-06 23:36:00,80.3,73.9,29.88,WNW,282,0.0,0.0,81,0.00,,SKC,0.02,VWS V13.01,2013-08-07 04:36:00,
2013-08-06 23:42:00,80.3,74.3,29.88,WNW,282,0.0,0.0,82,0.00,,SKC,0.02,VWS V13.01,2013-08-07 04:42:00,
2013-08-06 23:47:00,80.2,73.8,29.88,WNW,282,0.0,0.0,81,0.00,,SKC,0.02,VWS V13.01,2013-08-07 04:47:00,
2013-08-06 23:52:00,80.2,74.2,29.88,WNW,282,0.0,0.0,82,0.00,,SKC,0.02,VWS V13.01,2013-08-07 04:52:00,
2013-08-06 23:57:00,80.1,74.1,29.88,WNW,282,0.0,0.0,82,0.00,,SKC,0.00,VWS V13.01,2013-08-07 04:57:00,